Terminal Aerodrome Forecast
Issued by NWS

Home | Current Version | Previous Version | Text Only | Print | Product List | Glossary On
Versions: 1 2 3 4 5 6 7 8 9 10 11 12 13 14 15 16
000
FTUS41 KALY 301700
TAFPSF
TAF
KPSF 301724Z 3018/0118 10005KT P6SM SCT008 OVC015
     FM010400 05003KT 3SM BR OVC007
     FM011400 02005KT P6SM OVC015=

USA.gov is the U.S. government's official web portal to all federal, state and local government web resources and services.